createdAt,value
2023-05-15T00:02:40.653Z,22.08
2023-05-15T00:07:42.570Z,22.11
2023-05-15T00:12:43.962Z,22.11
2023-05-15T00:17:45.439Z,22.11
2023-05-15T00:22:46.869Z,22.10
2023-05-15T00:27:48.256Z,22.07
2023-05-15T00:32:49.670Z,22.05
2023-05-15T00:37:51.090Z,22.04
2023-05-15T00:42:52.736Z,22.05
2023-05-15T00:47:54.605Z,22.06
2023-05-15T00:52:56.087Z,22.10
2023-05-15T00:57:57.469Z,22.11
2023-05-15T01:02:59.319Z,22.08
2023-05-15T01:08:21.232Z,22.01
2023-05-15T01:13:22.899Z,22.03
2023-05-15T01:18:25.886Z,22.02
2023-05-15T01:23:54.143Z,22.05
2023-05-15T01:28:59.549Z,22.05
2023-05-15T01:34:03.487Z,22.04
2023-05-15T01:39:04.948Z,21.99
2023-05-15T01:44:19.800Z,22.02
2023-05-15T01:49:23.819Z,21.99
2023-05-15T01:54:25.540Z,22.02
2023-05-15T01:59:26.925Z,22.01
2023-05-15T02:04:28.300Z,21.98
2023-05-15T02:09:29.773Z,21.98
2023-05-15T02:14:31.223Z,21.97
2023-05-15T02:19:32.635Z,21.99
2023-05-15T02:24:34.007Z,22.00
2023-05-15T02:29:46.221Z,21.98
2023-05-15T02:35:05.822Z,21.98
2023-05-15T02:40:11.307Z,21.92
2023-05-15T02:45:12.899Z,21.93
2023-05-15T02:50:14.274Z,21.92
2023-05-15T02:55:15.652Z,21.93
2023-05-15T03:00:17.487Z,21.95
2023-05-15T03:05:18.921Z,21.94
2023-05-15T03:10:23.560Z,21.96
2023-05-15T03:15:25.171Z,21.94
2023-05-15T03:20:26.864Z,21.91
2023-05-15T03:25:28.333Z,21.93
2023-05-15T03:30:30.503Z,21.93
2023-05-15T03:35:32.310Z,21.95
2023-05-15T03:40:33.745Z,21.94
2023-05-15T03:45:35.267Z,21.93
2023-05-15T03:50:36.673Z,21.94
2023-05-15T03:55:38.100Z,21.92
2023-05-15T04:00:39.500Z,21.91
2023-05-15T04:05:40.979Z,21.90
2023-05-15T04:10:42.460Z,21.93
2023-05-15T04:15:43.841Z,21.92
2023-05-15T04:20:45.231Z,21.93
2023-05-15T04:25:47.229Z,21.98
2023-05-15T04:30:48.598Z,22.00
2023-05-15T04:35:49.978Z,21.97
2023-05-15T04:40:51.354Z,21.95
2023-05-15T04:45:52.816Z,21.98
2023-05-15T04:50:54.223Z,22.04
2023-05-15T04:55:55.617Z,22.07
2023-05-15T05:00:56.990Z,22.14
2023-05-15T05:05:58.353Z,22.17
2023-05-15T05:10:59.747Z,22.23
2023-05-15T05:16:01.252Z,22.29
2023-05-15T05:21:02.968Z,22.31
2023-05-15T05:26:06.037Z,22.34
2023-05-15T05:31:07.682Z,22.35
2023-05-15T05:36:09.282Z,22.38
2023-05-15T05:41:10.653Z,22.40
2023-05-15T05:46:12.189Z,22.39
2023-05-15T05:51:13.559Z,22.39
2023-05-15T05:56:15.013Z,22.41
2023-05-15T06:01:16.391Z,22.40
2023-05-15T06:06:17.854Z,22.40
2023-05-15T06:11:19.225Z,22.42
2023-05-15T06:16:20.639Z,22.41
2023-05-15T06:21:22.195Z,22.45
2023-05-15T06:26:23.635Z,22.44
2023-05-15T06:31:25.064Z,22.44
2023-05-15T06:36:26.487Z,22.44
2023-05-15T06:41:27.901Z,22.45
2023-05-15T06:46:29.415Z,22.48
2023-05-15T06:51:30.794Z,22.46
2023-05-15T06:56:32.175Z,22.47
2023-05-15T07:01:33.605Z,22.46
2023-05-15T07:06:36.216Z,22.49
2023-05-15T07:11:38.690Z,22.51
2023-05-15T07:16:40.632Z,22.50
2023-05-15T07:21:42.008Z,22.50
2023-05-15T07:26:54.293Z,22.51
2023-05-15T07:31:59.407Z,22.52
2023-05-15T07:37:00.861Z,22.55
2023-05-15T07:42:02.248Z,22.55
2023-05-15T07:47:03.679Z,22.54
2023-05-15T07:52:05.286Z,22.60
2023-05-15T07:57:06.853Z,22.72
2023-05-15T08:02:08.280Z,22.77
2023-05-15T08:07:09.671Z,22.81
2023-05-15T08:12:17.351Z,22.82
2023-05-15T08:17:19.319Z,22.90
2023-05-15T08:22:20.700Z,22.90
2023-05-15T08:27:22.079Z,22.87
2023-05-15T08:32:23.504Z,22.84
2023-05-15T08:37:26.089Z,22.82
2023-05-15T08:42:37.786Z,22.77
2023-05-15T08:47:40.361Z,22.77
2023-05-15T08:52:46.697Z,22.75
2023-05-15T08:57:48.115Z,22.74
2023-05-15T09:02:50.138Z,22.73
2023-05-15T09:07:51.560Z,22.76
2023-05-15T09:12:53.158Z,22.73
2023-05-15T09:17:54.674Z,22.72
2023-05-15T09:22:56.847Z,22.71
2023-05-15T09:27:58.211Z,22.66
2023-05-15T09:33:01.355Z,22.67
2023-05-15T09:38:04.320Z,22.65
2023-05-15T09:43:05.739Z,22.67
2023-05-15T09:48:07.617Z,22.66
2023-05-15T09:53:11.250Z,22.69
2023-05-15T09:58:13.732Z,22.70
2023-05-15T10:03:15.340Z,22.71
2023-05-15T10:08:26.073Z,22.71
2023-05-15T10:13:27.601Z,22.74
2023-05-15T10:18:29.065Z,22.73
2023-05-15T10:23:30.580Z,22.74
2023-05-15T10:28:32.152Z,22.75
2023-05-15T10:33:34.014Z,22.74
2023-05-15T10:38:35.416Z,22.75
2023-05-15T10:43:36.803Z,22.74
2023-05-15T10:48:38.317Z,22.70
2023-05-15T10:53:39.928Z,22.71
2023-05-15T10:58:47.505Z,22.71
2023-05-15T11:03:50.127Z,22.71
2023-05-15T11:08:52.398Z,22.70
2023-05-15T11:14:06.170Z,22.69
2023-05-15T11:19:32.266Z,22.74
2023-05-15T11:24:50.922Z,22.73
2023-05-15T11:30:04.805Z,22.72
2023-05-15T11:35:19.238Z,22.74
2023-05-15T11:40:22.294Z,22.72
2023-05-15T11:45:23.662Z,22.69
2023-05-15T11:50:25.573Z,22.72
2023-05-15T11:55:27.130Z,22.72
2023-05-15T12:00:28.498Z,22.74
2023-05-15T12:05:29.871Z,22.75
2023-05-15T12:10:31.327Z,22.79
2023-05-15T12:15:32.749Z,22.74
2023-05-15T12:20:38.356Z,22.71
2023-05-15T12:25:39.752Z,22.68
2023-05-15T12:30:41.614Z,22.68
2023-05-15T12:35:44.231Z,22.68
2023-05-15T12:40:52.026Z,22.68
2023-05-15T12:45:56.814Z,22.67
2023-05-15T12:51:04.635Z,22.66
2023-05-15T12:56:06.233Z,22.71
2023-05-15T13:01:07.643Z,22.72
2023-05-15T13:06:12.429Z,22.74
2023-05-15T13:11:14.076Z,22.77
2023-05-15T13:16:22.468Z,22.74
2023-05-15T13:21:23.886Z,22.78
2023-05-15T13:26:25.916Z,22.80
2023-05-15T13:31:27.401Z,22.80
2023-05-15T13:36:28.831Z,22.80
2023-05-15T13:41:30.221Z,22.77
2023-05-15T13:46:31.661Z,22.79
2023-05-15T13:51:33.127Z,22.75
2023-05-15T13:56:34.688Z,22.73
2023-05-15T14:01:36.103Z,22.70
2023-05-15T14:06:37.476Z,22.71
2023-05-15T14:11:39.014Z,22.67
2023-05-15T14:16:40.543Z,22.68
2023-05-15T14:21:41.976Z,22.66
2023-05-15T14:26:45.003Z,22.63
2023-05-15T14:31:46.466Z,22.64
2023-05-15T14:36:48.472Z,22.62
2023-05-15T14:41:49.886Z,22.61
2023-05-15T14:47:04.904Z,22.65
2023-05-15T14:52:08.322Z,22.61
2023-05-15T14:57:09.764Z,22.61
2023-05-15T15:02:11.166Z,22.61
2023-05-15T15:07:12.580Z,22.61
2023-05-15T15:12:13.963Z,22.61
2023-05-15T15:17:15.364Z,22.63
2023-05-15T15:22:16.758Z,22.65
2023-05-15T15:27:18.199Z,22.63
2023-05-15T15:32:19.589Z,22.64
2023-05-15T15:37:20.962Z,22.65
2023-05-15T15:42:23.304Z,22.60
2023-05-15T15:47:24.687Z,22.60
2023-05-15T15:52:26.250Z,22.59
2023-05-15T15:57:27.961Z,22.63
2023-05-15T16:02:29.447Z,22.63
2023-05-15T16:07:30.896Z,22.67
2023-05-15T16:12:32.526Z,22.66
2023-05-15T16:17:33.995Z,22.60
2023-05-15T16:22:35.507Z,22.57
2023-05-15T16:27:36.877Z,22.50
2023-05-15T16:32:38.284Z,22.51
2023-05-15T16:37:39.693Z,22.47
2023-05-15T16:42:41.423Z,22.47
2023-05-15T16:47:42.848Z,22.48
2023-05-15T16:52:47.234Z,22.45
2023-05-15T16:57:48.642Z,22.45
2023-05-15T17:02:50.152Z,22.44
2023-05-15T17:07:51.568Z,22.43
2023-05-15T17:12:53.105Z,22.49
2023-05-15T17:17:54.588Z,22.53
2023-05-15T17:22:56.012Z,22.50
2023-05-15T17:27:57.477Z,22.55
2023-05-15T17:33:00.256Z,22.56
2023-05-15T17:38:01.735Z,22.52
2023-05-15T17:43:03.635Z,22.50
2023-05-15T17:48:05.347Z,22.48
2023-05-15T17:53:06.839Z,22.48
2023-05-15T17:58:08.235Z,22.42
2023-05-15T18:03:09.695Z,22.43
2023-05-15T18:08:11.130Z,22.44
2023-05-15T18:13:12.759Z,22.45
2023-05-15T18:18:14.195Z,22.44
2023-05-15T18:23:16.607Z,22.39
2023-05-15T18:28:18.004Z,22.39
2023-05-15T18:33:19.399Z,22.40
2023-05-15T18:38:20.906Z,22.39
2023-05-15T18:43:22.291Z,22.35
2023-05-15T18:48:23.695Z,22.38
2023-05-15T18:53:25.439Z,22.36
2023-05-15T18:58:26.827Z,22.34
2023-05-15T19:03:28.223Z,22.33
2023-05-15T19:08:29.595Z,22.36
2023-05-15T19:13:32.763Z,22.35
2023-05-15T19:18:34.218Z,22.33
2023-05-15T19:23:35.910Z,22.33
2023-05-15T19:28:37.338Z,22.35
2023-05-15T19:33:38.748Z,22.38
2023-05-15T19:38:40.143Z,22.37
2023-05-15T19:43:46.096Z,22.40
2023-05-15T19:48:47.379Z,22.39
2023-05-15T19:53:48.839Z,22.34
2023-05-15T19:58:50.208Z,22.32
2023-05-15T20:03:51.714Z,22.34
2023-05-15T20:08:53.420Z,22.37
2023-05-15T20:13:54.802Z,22.33
2023-05-15T20:18:57.110Z,22.34
2023-05-15T20:23:58.526Z,22.36
2023-05-15T20:28:59.914Z,22.37
2023-05-15T20:34:01.419Z,22.34
2023-05-15T20:39:05.809Z,22.41
2023-05-15T20:44:07.258Z,22.36
2023-05-15T20:49:08.642Z,22.33
2023-05-15T20:54:10.116Z,22.32
2023-05-15T20:59:11.539Z,22.28
2023-05-15T21:04:12.981Z,22.31
2023-05-15T21:09:15.400Z,22.28
2023-05-15T21:14:16.790Z,22.25
2023-05-15T21:19:18.258Z,22.20
2023-05-15T21:24:19.808Z,22.10
2023-05-15T21:29:21.180Z,22.17
2023-05-15T21:34:22.565Z,22.32
2023-05-15T21:39:23.939Z,22.26
2023-05-15T21:44:25.342Z,22.30
2023-05-15T21:49:26.722Z,22.27
2023-05-15T21:54:28.127Z,22.25
2023-05-15T21:59:29.586Z,22.28
2023-05-15T22:04:31.070Z,22.26
2023-05-15T22:09:32.501Z,22.20
2023-05-15T22:14:35.009Z,22.23
2023-05-15T22:19:36.556Z,22.20
2023-05-15T22:24:38.033Z,22.23
2023-05-15T22:29:39.442Z,22.24
2023-05-15T22:34:40.811Z,22.23
2023-05-15T22:39:42.588Z,22.22
2023-05-15T22:44:44.016Z,22.19
2023-05-15T22:49:45.434Z,22.20
2023-05-15T22:54:46.884Z,22.18
2023-05-15T22:59:48.279Z,22.17
2023-05-15T23:04:49.669Z,22.19
2023-05-15T23:09:51.247Z,22.20
2023-05-15T23:14:52.619Z,22.16
2023-05-15T23:19:54.017Z,22.17
2023-05-15T23:24:55.515Z,22.20
2023-05-15T23:29:56.886Z,22.18
2023-05-15T23:34:59.187Z,22.21
2023-05-15T23:40:00.743Z,22.21
2023-05-15T23:45:02.185Z,22.21
2023-05-15T23:50:04.047Z,22.18
2023-05-15T23:55:05.680Z,22.20
